createdAt,value
2023-01-28T00:02:01.292Z,94679.78
2023-01-28T00:04:30.253Z,94676.41
2023-01-28T00:06:59.232Z,94677.94
2023-01-28T00:09:28.136Z,94679.88
2023-01-28T00:11:59.894Z,94685.56
2023-01-28T00:14:40.165Z,94683.03
2023-01-28T00:17:08.921Z,94688.66
2023-01-28T00:19:39.344Z,94690.67
2023-01-28T00:22:08.137Z,94696.67
2023-01-28T00:24:36.970Z,94706.86
2023-01-28T00:27:05.896Z,94697.45
2023-01-28T00:29:34.729Z,94709.61
2023-01-28T00:32:03.741Z,94710.52
2023-01-28T00:34:32.790Z,94714.23
2023-01-28T00:37:01.500Z,94716.59
2023-01-28T00:39:30.279Z,94714.52
2023-01-28T00:41:59.275Z,94715.83
2023-01-28T00:44:28.102Z,94720.47
2023-01-28T00:47:08.217Z,94716.99
2023-01-28T00:49:39.920Z,94716.70
2023-01-28T00:52:08.857Z,94718.16
2023-01-28T00:54:38.017Z,94718.78
2023-01-28T00:57:08.221Z,94721.44
2023-01-28T00:59:37.103Z,94721.70
2023-01-28T01:02:07.474Z,94721.07
2023-01-28T01:04:36.456Z,94725.79
2023-01-28T01:07:06.045Z,94723.26
2023-01-28T01:09:35.004Z,94726.80
2023-01-28T01:12:03.826Z,94719.48
2023-01-28T01:14:36.968Z,94723.47
2023-01-28T01:17:07.975Z,94685.39
2023-01-28T01:19:38.017Z,94726.62
2023-01-28T01:22:06.832Z,94725.94
2023-01-28T01:24:37.234Z,94723.02
2023-01-28T01:27:06.373Z,94734.28
2023-01-28T01:29:35.429Z,94731.41
2023-01-28T01:32:04.301Z,94733.91
2023-01-28T01:34:37.498Z,94728.34
2023-01-28T01:37:09.800Z,94736.75
2023-01-28T01:39:38.787Z,94736.98
2023-01-28T01:42:13.508Z,94739.69
2023-01-28T01:45:00.334Z,94733.34
2023-01-28T01:47:38.192Z,94735.51
2023-01-28T01:50:09.960Z,94739.30
2023-01-28T01:52:38.930Z,94737.97
2023-01-28T01:55:10.923Z,94739.98
2023-01-28T01:57:40.329Z,94739.12
2023-01-28T02:00:13.076Z,94737.19
2023-01-28T02:02:44.992Z,94740.36
2023-01-28T02:05:16.380Z,94741.21
2023-01-28T02:07:50.687Z,94749.62
2023-01-28T02:10:19.741Z,94749.30
2023-01-28T02:13:01.901Z,94756.94
2023-01-28T02:15:30.800Z,94754.16
2023-01-28T02:17:59.719Z,94752.47
2023-01-28T02:20:47.948Z,94759.40
2023-01-28T02:23:42.547Z,94751.31
2023-01-28T02:26:19.985Z,94759.94
2023-01-28T02:28:57.946Z,94759.31
2023-01-28T02:31:32.576Z,94756.47
2023-01-28T02:37:06.414Z,94753.84
2023-01-28T02:39:41.298Z,94684.16
2023-01-28T02:42:19.136Z,94756.92
2023-01-28T02:44:50.769Z,94757.78
2023-01-28T02:47:49.410Z,94753.22
2023-01-28T03:01:17.212Z,94762.56
2023-01-28T03:10:45.429Z,94688.17
2023-01-28T03:19:48.926Z,94765.86
2023-01-28T03:20:23.932Z,94768.30
2023-01-28T03:23:32.869Z,94772.92
2023-01-28T03:30:24.266Z,94776.30
2023-01-28T03:33:18.667Z,94777.24
2023-01-28T03:36:14.553Z,94776.52
2023-01-28T03:52:19.165Z,94777.20
2023-01-28T03:55:03.637Z,94775.58
2023-01-28T03:57:37.947Z,94781.19
2023-01-28T04:16:31.020Z,94800.81
2023-01-28T04:25:49.043Z,94800.48
2023-01-28T04:31:46.563Z,94810.11
2023-01-28T04:54:55.507Z,94828.73
2023-01-28T04:57:38.518Z,94829.84
2023-01-28T05:09:53.833Z,94850.48
2023-01-28T05:47:47.638Z,94871.55
2023-01-28T05:50:31.681Z,94875.75
2023-01-28T05:53:07.896Z,94865.74
2023-01-28T05:55:58.423Z,94867.16
2023-01-28T05:58:41.669Z,94872.05
2023-01-28T06:01:18.445Z,94884.69
2023-01-28T06:03:53.360Z,94882.58
2023-01-28T06:39:28.653Z,94934.92
2023-01-28T07:14:38.976Z,94967.57
2023-01-28T08:17:46.878Z,95035.30
2023-01-28T08:20:44.414Z,95042.33
2023-01-28T08:23:31.859Z,95038.66
2023-01-28T08:36:14.548Z,95047.39
2023-01-28T08:38:51.799Z,95047.45
2023-01-28T08:51:55.875Z,95045.79
2023-01-28T08:54:51.964Z,95048.94
2023-01-28T09:00:11.792Z,95054.82
2023-01-28T09:02:59.502Z,95056.95
2023-01-28T09:05:28.323Z,95059.43
2023-01-28T09:08:02.942Z,95060.81
2023-01-28T09:10:31.804Z,95065.41
2023-01-28T09:13:02.782Z,95057.98
2023-01-28T09:15:36.287Z,95060.30
2023-01-28T09:18:07.970Z,95058.78
2023-01-28T09:21:01.811Z,95059.84
2023-01-28T09:23:41.363Z,95059.88
2023-01-28T09:29:32.588Z,95063.17
2023-01-28T09:32:53.701Z,95058.67
2023-01-28T09:35:23.532Z,95056.17
2023-01-28T09:38:09.079Z,95057.61
2023-01-28T09:47:42.349Z,95050.83
2023-01-28T09:53:50.359Z,95057.23
2023-01-28T09:56:19.255Z,95057.22
2023-01-28T09:58:48.403Z,95040.98
2023-01-28T10:01:46.949Z,95058.69
2023-01-28T10:04:37.564Z,95056.31
2023-01-28T10:08:02.134Z,95055.27
2023-01-28T10:10:39.282Z,95058.75
2023-01-28T10:13:14.689Z,95053.73
2023-01-28T10:16:07.836Z,95045.75
2023-01-28T10:18:45.189Z,95048.92
2023-01-28T10:21:50.008Z,95044.05
2023-01-28T10:28:23.251Z,95029.65
2023-01-28T10:30:52.960Z,95050.59
2023-01-28T10:33:38.716Z,95051.34
2023-01-28T10:40:39.974Z,95050.82
2023-01-28T11:03:23.102Z,95042.14
2023-01-28T11:04:54.019Z,95043.00
2023-01-28T12:52:12.969Z,95044.17
2023-01-28T13:43:43.787Z,95085.56
2023-01-28T13:46:23.232Z,95092.13
2023-01-28T13:51:19.800Z,95097.54
2023-01-28T14:20:53.240Z,95125.38
2023-01-28T14:23:22.662Z,95124.66
2023-01-28T14:32:24.460Z,95130.53
2023-01-28T14:35:11.478Z,95135.22
2023-01-28T14:38:06.950Z,95146.20
2023-01-28T14:44:19.916Z,95150.22
2023-01-28T14:50:30.867Z,95141.51
2023-01-28T14:53:16.341Z,95155.50
2023-01-28T14:56:08.367Z,95160.66
2023-01-28T14:58:46.538Z,95162.05
2023-01-28T15:01:44.460Z,95164.58
2023-01-28T15:04:41.449Z,95166.33
2023-01-28T15:07:22.079Z,95172.82
2023-01-28T15:10:06.079Z,95168.84
2023-01-28T15:12:37.461Z,95175.86
2023-01-28T15:15:15.489Z,95167.99
2023-01-28T15:17:44.951Z,95168.73
2023-01-28T15:20:19.509Z,95179.30
2023-01-28T15:22:53.282Z,95175.36
2023-01-28T15:25:25.881Z,95181.84
2023-01-28T15:28:04.692Z,95174.94
2023-01-28T15:30:37.549Z,95180.23
2023-01-28T15:33:14.368Z,95180.77
2023-01-28T15:42:16.799Z,95181.63
2023-01-28T15:57:57.802Z,95198.50
2023-01-28T16:07:27.177Z,95137.57
2023-01-28T16:10:16.322Z,95213.92
2023-01-28T16:15:37.753Z,95222.03
2023-01-28T16:18:45.443Z,95147.64
2023-01-28T16:22:26.472Z,95222.86
2023-01-28T16:24:40.877Z,95227.65
2023-01-28T16:36:20.832Z,95236.71
2023-01-28T16:39:19.996Z,95234.95
2023-01-28T16:41:46.920Z,95203.08
2023-01-28T16:44:18.725Z,95244.45
2023-01-28T16:46:47.839Z,95245.52
2023-01-28T16:49:22.296Z,95249.80
2023-01-28T16:51:59.073Z,95246.66
2023-01-28T16:54:46.988Z,95247.36
2023-01-28T16:57:23.519Z,95248.25
2023-01-28T17:05:43.277Z,95258.98
2023-01-28T17:19:00.456Z,95263.20
2023-01-28T17:28:20.980Z,95277.67
2023-01-28T17:30:58.618Z,95276.13
2023-01-28T17:33:38.775Z,95279.69
2023-01-28T17:36:09.406Z,95284.94
2023-01-28T17:41:37.222Z,95278.25
2023-01-28T17:44:08.033Z,95288.26
2023-01-28T17:46:40.124Z,95292.52
2023-01-28T17:49:17.738Z,95277.83
2023-01-28T17:51:53.295Z,95293.63
2023-01-28T17:57:41.700Z,95294.30
2023-01-28T18:00:13.304Z,95295.95
2023-01-28T18:02:43.976Z,95297.76
2023-01-28T18:05:37.502Z,95223.67
2023-01-28T18:08:07.895Z,95299.61
2023-01-28T18:10:45.506Z,95297.52
2023-01-28T18:13:16.359Z,95295.77
2023-01-28T18:15:58.226Z,95305.24
2023-01-28T18:18:30.341Z,95307.16
2023-01-28T18:21:12.145Z,95309.64
2023-01-28T18:23:44.854Z,95317.82
2023-01-28T18:26:17.254Z,95316.03
2023-01-28T18:29:06.114Z,95315.16
2023-01-28T18:31:35.244Z,95320.64
2023-01-28T18:34:07.835Z,95313.85
2023-01-28T18:36:38.553Z,95320.58
2023-01-28T18:39:32.240Z,95322.39
2023-01-28T18:42:01.279Z,95321.73
2023-01-28T18:44:34.494Z,95323.97
2023-01-28T18:47:06.317Z,95326.95
2023-01-28T18:49:43.385Z,95328.84
2023-01-28T18:52:15.026Z,95331.52
2023-01-28T18:54:51.360Z,95331.44
2023-01-28T18:57:21.408Z,95332.98
2023-01-28T18:59:52.129Z,95322.14
2023-01-28T19:02:31.637Z,95326.91
2023-01-28T19:05:08.457Z,95325.60
2023-01-28T19:07:39.087Z,95327.27
2023-01-28T19:10:12.393Z,95326.83
2023-01-28T19:13:00.535Z,95331.39
2023-01-28T19:15:44.933Z,95325.91
2023-01-28T19:18:19.491Z,95341.27
2023-01-28T19:20:48.826Z,95340.70
2023-01-28T19:23:17.884Z,95338.94
2023-01-28T19:25:54.088Z,95333.22
2023-01-28T19:28:27.545Z,95343.16
2023-01-28T19:31:00.693Z,95345.72
2023-01-28T19:33:42.254Z,95346.94
2023-01-28T19:36:14.084Z,95351.70
2023-01-28T20:15:09.331Z,95364.12
2023-01-28T20:27:27.015Z,95373.23
2023-01-28T20:29:55.817Z,95369.50
2023-01-28T20:32:26.947Z,95377.27
2023-01-28T20:35:01.350Z,95386.00
2023-01-28T20:37:30.226Z,95388.48
2023-01-28T20:40:01.961Z,95386.54
2023-01-28T20:42:32.794Z,95388.77
2023-01-28T20:45:04.362Z,95397.94
2023-01-28T20:47:34.388Z,95403.27
2023-01-28T20:50:05.700Z,95407.17
2023-01-28T20:52:34.635Z,95399.94
2023-01-28T20:55:03.393Z,95402.34
2023-01-28T20:57:35.597Z,95409.13
2023-01-28T21:00:14.764Z,95405.06
2023-01-28T21:02:46.224Z,95400.66
2023-01-28T21:05:17.209Z,95395.17
2023-01-28T21:07:47.939Z,95403.48
2023-01-28T21:10:20.455Z,95404.44
2023-01-28T21:12:52.974Z,95405.98
2023-01-28T21:15:24.292Z,95409.67
2023-01-28T21:17:59.101Z,95413.66
2023-01-28T21:20:23.458Z,95413.03
2023-01-28T21:25:50.608Z,95425.78
2023-01-28T21:28:20.773Z,95423.75
2023-01-28T21:30:49.645Z,95426.61
2023-01-28T21:33:26.436Z,95427.16
2023-01-28T21:35:55.295Z,95428.16
2023-01-28T21:38:26.987Z,95423.16
2023-01-28T21:41:00.658Z,95422.00
2023-01-28T21:46:42.925Z,95422.20
2023-01-28T21:49:16.072Z,95430.16
2023-01-28T21:51:47.954Z,95428.60
2023-01-28T21:54:23.486Z,95421.91
2023-01-28T21:56:53.860Z,95430.30
2023-01-28T21:59:31.834Z,95431.47
2023-01-28T22:02:18.110Z,95427.69
2023-01-28T22:04:54.030Z,95430.84
2023-01-28T22:07:25.717Z,95428.16
2023-01-28T22:09:56.886Z,95433.07
2023-01-28T22:12:28.616Z,95427.86
2023-01-28T22:15:01.810Z,95432.62
2023-01-28T22:17:33.029Z,95426.94
2023-01-28T22:20:01.920Z,95432.69
2023-01-28T22:22:34.063Z,95435.98
2023-01-28T22:27:45.862Z,95431.80
2023-01-28T22:30:15.336Z,95434.80
2023-01-28T22:32:44.333Z,95433.45
2023-01-28T22:35:37.888Z,95439.09
2023-01-28T22:38:09.177Z,95437.30
2023-01-28T22:40:52.771Z,95431.59
2023-01-28T22:43:37.461Z,95442.37
2023-01-28T22:46:07.245Z,95427.28
2023-01-28T22:48:37.889Z,95428.21
2023-01-28T22:51:09.030Z,95431.36
2023-01-28T22:53:37.714Z,95433.86
2023-01-28T22:56:08.933Z,95432.38
2023-01-28T22:58:38.751Z,95431.91
2023-01-28T23:01:08.035Z,95428.45
2023-01-28T23:03:37.990Z,95437.70
2023-01-28T23:06:06.794Z,95426.98
2023-01-28T23:08:35.525Z,95435.72
2023-01-28T23:11:04.633Z,95431.84
2023-01-28T23:13:37.953Z,95443.00
2023-01-28T23:16:30.705Z,95437.30
2023-01-28T23:19:20.538Z,95440.41
2023-01-28T23:22:08.837Z,95430.33
2023-01-28T23:24:40.736Z,95437.52
2023-01-28T23:27:09.549Z,95433.05
2023-01-28T23:29:40.796Z,95435.23
2023-01-28T23:32:14.697Z,95438.30
2023-01-28T23:34:46.319Z,95434.13
2023-01-28T23:37:15.937Z,95435.44
2023-01-28T23:39:44.525Z,95435.83
2023-01-28T23:42:16.108Z,95436.31
2023-01-28T23:44:44.845Z,95435.48
2023-01-28T23:47:13.909Z,95438.05
2023-01-28T23:49:42.915Z,95435.70
2023-01-28T23:52:13.229Z,95431.00
2023-01-28T23:54:41.901Z,95429.28
2023-01-28T23:57:10.515Z,95437.77
2023-01-28T23:59:39.149Z,95440.41
